Aurora, Illinois
Current Conditions -  °F | °C
As of 10:52 AM on Friday 19 Dec 2014 (Local Time) from KARR Reporting Station
Overcast Overcast  
Wind Chill: 33°   Ceiling: 2800
Heat Index: 33°   Visibility: 8mi
Dew Point: 22°   Wind: 0mph
Humidity: 64%   Direction: NA
Pressure: 30.31"   Gusts: NA
Location:  41.76°N, 88.31°W
Report Text: KARR 191652Z 00000KT 8SM SCT023 OVC028 01/M06 A3031 RMK AO2 SLP274 T00061056
Loading
Personal Weather Stations






























Interactive Weather Map New forecast layout! Learn more

10-Day Weather Forecast

Advertisements
Track Severe Weather on mobile